Terminal Aerodrome Forecast
Issued by NWS Salt Lake City, UT

Home | Current Version | Previous Version | Text Only | Print | Product List | Glossary On
Versions: 1 2 3 4 5 6 7 8 9 10 11 12 13 14 15 16 17 18 19 20 21 22 23 24 25 26 27 28 29 30 31 32 33 34 35 36 37 38 39 40 41 42
000
FTUS45 KSLC 311222 AAA
TAFCDC
TAF AMD
KCDC 311222Z 3112/0112 34004KT 6SM -SHRA BR SCT006 BKN015
      TEMPO 3112/3114 4SM -SN BR OVC005
     FM311800 02009KT P6SM SCT015 BKN040
     FM312200 02009KT P6SM SCT040 SCT200
     FM010200 VRB04KT P6SM FEW040=

USA.gov is the U.S. government's official web portal to all federal, state and local government web resources and services.